Terminal Aerodrome Forecast
Issued by NWS

Current Version | Previous Version | Text Only | Print | Product List | Glossary On
Versions: 1 2 3 4 5 6 7 8 9 10 11 12
000
FTUS45 KGGW 011700
TAFSDY
TAF
KSDY 011720Z 0118/0218 29009KT P6SM BKN030
     FM020000 VRB05KT P6SM FEW150
     FM021200 18010KT P6SM SCT170
      AMD LTD TO CLD VIS AND WIND=

USA.gov is the U.S. government's official web portal to all federal, state and local government web resources and services.